createdAt,value
2023-05-05T00:01:19.314Z,100539.72
2023-05-05T00:03:46.056Z,100534.78
2023-05-05T00:06:12.681Z,100548.19
2023-05-05T00:08:39.162Z,100532.06
2023-05-05T00:11:05.749Z,100532.31
2023-05-05T00:13:32.333Z,100533.16
2023-05-05T00:15:58.920Z,100534.34
2023-05-05T00:18:25.526Z,100533.16
2023-05-05T00:20:52.300Z,100530.84
2023-05-05T00:23:19.908Z,100528.69
2023-05-05T00:25:46.757Z,100532.41
2023-05-05T00:28:14.326Z,100523.03
2023-05-05T00:30:40.978Z,100517.66
2023-05-05T00:33:07.734Z,100518.84
2023-05-05T00:35:34.640Z,100519.53
2023-05-05T00:38:01.272Z,100509.75
2023-05-05T00:40:27.836Z,100511.03
2023-05-05T00:42:54.444Z,100508.22
2023-05-05T00:45:21.167Z,100503.41
2023-05-05T00:48:01.362Z,100495.81
2023-05-05T00:50:30.231Z,100502.50
2023-05-05T00:53:00.928Z,100494.47
2023-05-05T00:55:29.294Z,100490.78
2023-05-05T00:57:57.143Z,100493.34
2023-05-05T01:00:23.990Z,100489.88
2023-05-05T01:02:51.922Z,100494.91
2023-05-05T01:05:20.809Z,100487.84
2023-05-05T01:08:03.045Z,100492.97
2023-05-05T01:10:45.184Z,100490.22
2023-05-05T01:13:24.627Z,100488.91
2023-05-05T01:15:59.311Z,100489.78
2023-05-05T01:18:37.113Z,100492.00
2023-05-05T01:21:14.498Z,100492.31
2023-05-05T01:24:07.261Z,100489.94
2023-05-05T01:26:52.589Z,100498.78
2023-05-05T01:29:47.136Z,100504.03
2023-05-05T01:32:16.471Z,100498.59
2023-05-05T01:34:53.682Z,100501.63
2023-05-05T01:37:28.104Z,100506.72
2023-05-05T01:39:59.538Z,100506.31
2023-05-05T01:42:27.203Z,100506.00
2023-05-05T01:44:54.496Z,100505.59
2023-05-05T01:47:23.451Z,100495.78
2023-05-05T01:49:51.401Z,100501.06
2023-05-05T01:52:18.394Z,100493.44
2023-05-05T01:54:46.604Z,100496.75
2023-05-05T01:57:14.724Z,100492.00
2023-05-05T01:59:41.287Z,100489.53
2023-05-05T02:02:10.345Z,100482.81
2023-05-05T02:04:41.825Z,100485.91
2023-05-05T02:07:10.235Z,100487.88
2023-05-05T02:09:37.960Z,100478.69
2023-05-05T02:12:06.054Z,100477.91
2023-05-05T02:14:34.633Z,100476.59
2023-05-05T02:17:01.946Z,100468.06
2023-05-05T02:19:39.732Z,100462.97
2023-05-05T02:22:06.725Z,100463.75
2023-05-05T02:24:33.977Z,100463.59
2023-05-05T02:27:03.878Z,100451.19
2023-05-05T02:29:36.922Z,100447.75
2023-05-05T02:32:14.032Z,100449.84
2023-05-05T02:34:42.843Z,100442.06
2023-05-05T02:37:12.560Z,100452.34
2023-05-05T02:40:19.534Z,100451.50
2023-05-05T02:42:47.986Z,100449.22
2023-05-05T02:45:20.068Z,100448.56
2023-05-05T02:47:46.651Z,100452.75
2023-05-05T02:50:13.315Z,100447.47
2023-05-05T02:52:39.997Z,100451.28
2023-05-05T02:55:07.261Z,100454.34
2023-05-05T02:58:00.558Z,100461.44
2023-05-05T03:00:53.554Z,100467.38
2023-05-05T03:03:30.774Z,100470.63
2023-05-05T03:06:06.728Z,100466.91
2023-05-05T03:08:44.067Z,100466.81
2023-05-05T03:11:26.186Z,100472.25
2023-05-05T03:14:04.376Z,100466.03
2023-05-05T03:16:35.158Z,100462.81
2023-05-05T03:19:04.031Z,100468.94
2023-05-05T03:21:32.524Z,100460.94
2023-05-05T03:23:59.289Z,100466.91
2023-05-05T03:26:25.863Z,100467.94
2023-05-05T03:28:52.350Z,100463.28
2023-05-05T03:31:18.992Z,100462.88
2023-05-05T03:33:45.589Z,100466.38
2023-05-05T03:36:12.143Z,100474.88
2023-05-05T03:38:38.684Z,100468.22
2023-05-05T03:41:05.283Z,100461.75
2023-05-05T03:43:31.848Z,100468.16
2023-05-05T03:45:58.392Z,100464.50
2023-05-05T03:48:24.974Z,100468.31
2023-05-05T03:50:51.884Z,100463.78
2023-05-05T03:53:18.389Z,100470.09
2023-05-05T03:55:44.914Z,100475.38
2023-05-05T03:58:11.551Z,100473.13
2023-05-05T04:00:38.124Z,100474.59
2023-05-05T04:03:04.923Z,100475.25
2023-05-05T04:05:31.574Z,100480.59
2023-05-05T04:07:58.451Z,100474.72
2023-05-05T04:10:25.179Z,100470.16
2023-05-05T04:12:51.767Z,100474.84
2023-05-05T04:15:18.350Z,100467.06
2023-05-05T04:17:44.970Z,100469.88
2023-05-05T04:20:11.736Z,100466.22
2023-05-05T04:22:38.274Z,100465.03
2023-05-05T04:25:05.361Z,100462.75
2023-05-05T04:27:31.960Z,100465.16
2023-05-05T04:29:58.842Z,100466.09
2023-05-05T04:32:25.626Z,100463.97
2023-05-05T04:34:52.212Z,100463.81
2023-05-05T04:37:19.414Z,100472.41
2023-05-05T04:39:46.545Z,100470.78
2023-05-05T04:42:13.102Z,100481.31
2023-05-05T04:44:39.622Z,100490.53
2023-05-05T04:47:06.169Z,100485.94
2023-05-05T04:49:32.808Z,100486.78
2023-05-05T04:51:59.352Z,100486.41
2023-05-05T04:54:26.016Z,100488.63
2023-05-05T04:56:52.726Z,100479.31
2023-05-05T04:59:19.309Z,100491.91
2023-05-05T05:01:46.469Z,100487.00
2023-05-05T05:04:13.786Z,100477.78
2023-05-05T05:06:40.340Z,100482.88
2023-05-05T05:09:06.917Z,100479.66
2023-05-05T05:11:33.508Z,100473.16
2023-05-05T05:14:00.064Z,100483.56
2023-05-05T05:16:26.871Z,100479.88
2023-05-05T05:18:53.491Z,100479.31
2023-05-05T05:21:20.310Z,100484.91
2023-05-05T05:23:47.328Z,100485.38
2023-05-05T05:26:13.914Z,100480.16
2023-05-05T05:28:41.645Z,100477.53
2023-05-05T05:31:08.162Z,100482.72
2023-05-05T05:33:34.718Z,100484.81
2023-05-05T05:36:01.394Z,100476.16
2023-05-05T05:38:27.928Z,100491.56
2023-05-05T05:40:54.622Z,100484.31
2023-05-05T05:43:21.282Z,100485.97
2023-05-05T05:45:47.998Z,100483.03
2023-05-05T05:48:14.591Z,100479.41
2023-05-05T05:50:41.676Z,100480.66
2023-05-05T05:53:08.241Z,100484.16
2023-05-05T05:55:34.877Z,100481.16
2023-05-05T05:58:01.432Z,100477.66
2023-05-05T06:00:27.988Z,100480.50
2023-05-05T06:02:54.610Z,100479.72
2023-05-05T06:05:21.259Z,100487.28
2023-05-05T06:07:47.820Z,100481.50
2023-05-05T06:10:26.466Z,100491.78
2023-05-05T06:12:54.717Z,100487.09
2023-05-05T06:15:21.344Z,100483.53
2023-05-05T06:17:48.114Z,100476.50
2023-05-05T06:20:14.910Z,100489.13
2023-05-05T06:22:41.486Z,100485.44
2023-05-05T06:25:08.347Z,100481.00
2023-05-05T06:27:35.193Z,100483.22
2023-05-05T06:30:01.773Z,100476.78
2023-05-05T06:32:28.325Z,100481.47
2023-05-05T06:34:54.833Z,100475.16
2023-05-05T06:37:22.508Z,100471.81
2023-05-05T06:39:49.103Z,100473.31
2023-05-05T06:42:15.674Z,100471.16
2023-05-05T06:44:42.200Z,100467.66
2023-05-05T06:47:08.770Z,100461.84
2023-05-05T06:49:35.293Z,100463.84
2023-05-05T06:52:01.937Z,100473.81
2023-05-05T06:54:28.480Z,100464.56
2023-05-05T06:56:55.043Z,100462.06
2023-05-05T06:59:21.590Z,100461.72
2023-05-05T07:01:48.145Z,100459.63
2023-05-05T07:04:14.802Z,100457.81
2023-05-05T07:06:41.378Z,100458.63
2023-05-05T07:09:07.931Z,100458.16
2023-05-05T07:11:34.441Z,100461.78
2023-05-05T07:14:01.007Z,100464.34
2023-05-05T07:16:28.007Z,100459.13
2023-05-05T07:18:54.587Z,100462.63
2023-05-05T07:21:21.374Z,100458.31
2023-05-05T07:23:47.971Z,100456.00
2023-05-05T07:26:15.442Z,100457.75
2023-05-05T07:28:43.167Z,100445.94
2023-05-05T07:31:09.871Z,100449.34
2023-05-05T07:33:36.477Z,100449.94
2023-05-05T07:36:03.296Z,100456.97
2023-05-05T07:38:29.890Z,100450.94
2023-05-05T07:40:56.365Z,100452.41
2023-05-05T07:43:22.938Z,100455.69
2023-05-05T07:45:49.704Z,100453.97
2023-05-05T07:48:16.283Z,100459.91
2023-05-05T07:50:42.848Z,100452.53
2023-05-05T07:53:14.654Z,100452.91
2023-05-05T07:55:41.967Z,100449.50
2023-05-05T07:58:08.653Z,100457.09
2023-05-05T08:00:35.649Z,100449.25
2023-05-05T08:03:02.304Z,100452.69
2023-05-05T08:05:28.879Z,100448.03
2023-05-05T08:07:57.307Z,100442.41
2023-05-05T08:10:23.865Z,100441.28
2023-05-05T08:12:51.978Z,100442.56
2023-05-05T08:15:18.622Z,100448.06
2023-05-05T08:18:01.606Z,100444.19
2023-05-05T08:20:29.129Z,100450.84
2023-05-05T08:22:58.661Z,100445.03
2023-05-05T08:25:27.045Z,100443.50
2023-05-05T08:27:54.138Z,100436.22
2023-05-05T08:30:23.548Z,100443.34
2023-05-05T08:32:51.439Z,100434.00
2023-05-05T08:35:18.198Z,100435.03
2023-05-05T08:37:45.009Z,100421.72
2023-05-05T08:40:14.169Z,100422.38
2023-05-05T08:42:41.586Z,100423.88
2023-05-05T08:45:09.406Z,100419.34
2023-05-05T08:47:37.869Z,100407.03
2023-05-05T08:50:05.963Z,100409.25
2023-05-05T08:52:40.317Z,100410.44
2023-05-05T08:55:28.650Z,100409.25
2023-05-05T08:57:57.401Z,100406.88
2023-05-05T09:00:26.511Z,100410.88
2023-05-05T09:02:58.397Z,100405.22
2023-05-05T09:05:28.776Z,100401.88
2023-05-05T09:07:55.388Z,100404.03
2023-05-05T09:10:22.056Z,100402.81
2023-05-05T09:12:51.162Z,100406.19
2023-05-05T09:15:17.870Z,100399.47
2023-05-05T09:17:44.526Z,100400.44
2023-05-05T09:20:15.295Z,100397.00
2023-05-05T09:22:44.913Z,100393.53
2023-05-05T09:25:16.023Z,100396.75
2023-05-05T09:27:46.145Z,100394.63
2023-05-05T09:30:16.683Z,100392.00
2023-05-05T09:32:44.097Z,100391.38
2023-05-05T09:35:10.719Z,100390.94
2023-05-05T09:37:38.614Z,100393.06
2023-05-05T09:40:06.870Z,100397.09
2023-05-05T09:42:34.410Z,100400.84
2023-05-05T09:45:01.106Z,100398.31
2023-05-05T09:47:35.550Z,100402.47
2023-05-05T09:50:06.016Z,100398.22
2023-05-05T09:52:32.877Z,100393.09
2023-05-05T09:54:59.481Z,100392.47
2023-05-05T09:57:34.171Z,100390.94
2023-05-05T10:00:02.637Z,100385.50
2023-05-05T10:02:38.499Z,100381.13
2023-05-05T10:05:15.669Z,100383.13
2023-05-05T10:07:44.755Z,100381.16
2023-05-05T10:10:14.136Z,100378.19
2023-05-05T10:12:42.222Z,100368.50
2023-05-05T10:15:11.478Z,100365.59
2023-05-05T10:18:05.191Z,100377.03
2023-05-05T10:20:36.523Z,100365.09
2023-05-05T10:23:07.017Z,100364.69
2023-05-05T10:25:42.154Z,100356.50
2023-05-05T10:28:16.634Z,100353.34
2023-05-05T10:30:46.079Z,100352.38
2023-05-05T10:33:31.588Z,100357.41
2023-05-05T10:36:05.339Z,100356.41
2023-05-05T10:38:33.759Z,100354.91
2023-05-05T10:41:02.164Z,100350.00
2023-05-05T10:43:31.031Z,100348.19
2023-05-05T10:45:58.647Z,100352.19
2023-05-05T10:48:56.700Z,100356.09
2023-05-05T10:52:00.652Z,100341.91
2023-05-05T10:54:48.953Z,100337.16
2023-05-05T10:57:18.764Z,100330.19
2023-05-05T10:59:46.590Z,100330.75
2023-05-05T11:02:27.359Z,100328.88
2023-05-05T11:05:03.257Z,100331.81
2023-05-05T11:07:29.840Z,100326.09
2023-05-05T11:10:03.486Z,100320.19
2023-05-05T11:12:31.593Z,100327.31
2023-05-05T11:15:29.765Z,100324.97
2023-05-05T11:17:57.675Z,100318.59
2023-05-05T11:20:43.590Z,100313.13
2023-05-05T11:23:10.254Z,100309.31
2023-05-05T11:25:41.172Z,100307.53
2023-05-05T11:28:11.963Z,100296.41
2023-05-05T11:31:04.895Z,100298.66
2023-05-05T11:33:33.153Z,100305.53
2023-05-05T11:36:03.448Z,100300.56
2023-05-05T11:38:40.843Z,100293.06
2023-05-05T11:41:15.508Z,100299.47
2023-05-05T11:43:42.340Z,100297.16
2023-05-05T11:46:19.347Z,100282.06
2023-05-05T11:48:52.817Z,100278.69
2023-05-05T11:51:19.476Z,100294.66
2023-05-05T11:53:47.771Z,100291.44
2023-05-05T11:56:22.376Z,100290.28
2023-05-05T11:58:49.872Z,100282.41
2023-05-05T12:01:16.713Z,100283.16
2023-05-05T12:03:45.609Z,100282.66
2023-05-05T12:06:13.197Z,100280.28
2023-05-05T12:08:40.772Z,100272.66
2023-05-05T12:11:09.968Z,100267.38
2023-05-05T12:13:36.848Z,100273.69
2023-05-05T12:16:14.367Z,100269.19
2023-05-05T12:18:41.687Z,100275.47
2023-05-05T12:21:21.955Z,100266.34
2023-05-05T12:23:48.551Z,100271.72
2023-05-05T12:26:31.857Z,100278.94
2023-05-05T12:29:00.344Z,100278.38
2023-05-05T12:31:41.610Z,100275.38
2023-05-05T12:34:10.254Z,100277.78
2023-05-05T12:36:37.652Z,100277.81
2023-05-05T12:39:05.394Z,100278.78
2023-05-05T12:41:32.584Z,100271.41
2023-05-05T12:44:00.314Z,100275.72
2023-05-05T12:46:29.624Z,100265.16
2023-05-05T12:49:05.120Z,100260.72
2023-05-05T12:51:33.248Z,100263.81
2023-05-05T12:54:05.242Z,100259.34
2023-05-05T12:56:32.597Z,100262.31
2023-05-05T12:58:59.641Z,100257.41
2023-05-05T13:01:26.247Z,100246.16
2023-05-05T13:04:08.381Z,100253.72
2023-05-05T13:06:35.965Z,100251.81
2023-05-05T13:09:02.680Z,100249.19
2023-05-05T13:11:29.383Z,100247.69
2023-05-05T13:13:56.543Z,100247.34
2023-05-05T13:16:23.191Z,100256.19
2023-05-05T13:18:50.565Z,100240.88
2023-05-05T13:21:17.182Z,100240.00
2023-05-05T13:23:44.817Z,100241.72
2023-05-05T13:26:14.647Z,100235.19
2023-05-05T13:28:41.610Z,100235.44
2023-05-05T13:31:08.443Z,100226.34
2023-05-05T13:33:35.291Z,100220.81
2023-05-05T13:36:04.903Z,100212.28
2023-05-05T13:38:33.104Z,100222.31
2023-05-05T13:41:00.092Z,100222.34
2023-05-05T13:43:26.710Z,100217.28
2023-05-05T13:45:53.591Z,100207.28
2023-05-05T13:48:20.528Z,100211.19
2023-05-05T13:50:47.363Z,100200.63
2023-05-05T13:53:16.768Z,100200.25
2023-05-05T13:55:43.367Z,100197.56
2023-05-05T13:58:10.420Z,100206.84
2023-05-05T14:00:37.849Z,100199.38
2023-05-05T14:03:04.705Z,100194.06
2023-05-05T14:05:31.312Z,100189.84
2023-05-05T14:07:59.584Z,100190.94
2023-05-05T14:10:29.685Z,100184.97
2023-05-05T14:12:56.766Z,100175.56
2023-05-05T14:15:23.348Z,100181.09
2023-05-05T14:17:49.989Z,100172.66
2023-05-05T14:20:16.589Z,100172.94
2023-05-05T14:22:43.295Z,100179.59
2023-05-05T14:25:10.067Z,100180.69
2023-05-05T14:27:36.751Z,100174.19
2023-05-05T14:30:04.858Z,100180.00
2023-05-05T14:32:31.443Z,100170.44
2023-05-05T14:34:58.038Z,100170.41
2023-05-05T14:37:24.575Z,100171.59
2023-05-05T14:39:51.090Z,100163.75
2023-05-05T14:42:17.690Z,100168.22
2023-05-05T14:44:44.203Z,100163.66
2023-05-05T14:47:10.903Z,100163.91
2023-05-05T14:49:37.441Z,100157.44
2023-05-05T14:52:04.127Z,100167.88
2023-05-05T14:54:30.672Z,100162.31
2023-05-05T14:56:58.323Z,100158.69
2023-05-05T14:59:24.928Z,100160.41
2023-05-05T15:01:51.554Z,100146.50
2023-05-05T15:04:18.115Z,100148.09
2023-05-05T15:06:44.662Z,100150.09
2023-05-05T15:09:11.202Z,100146.88
2023-05-05T15:11:38.064Z,100146.94
2023-05-05T15:14:04.659Z,100142.69
2023-05-05T15:16:32.656Z,100146.09
2023-05-05T15:19:01.083Z,100138.72
2023-05-05T15:21:28.081Z,100144.47
2023-05-05T15:23:57.345Z,100143.09
2023-05-05T15:26:24.059Z,100138.50
2023-05-05T15:28:52.792Z,100130.19
2023-05-05T15:31:19.330Z,100129.31
2023-05-05T15:33:48.452Z,100138.06
2023-05-05T15:36:15.072Z,100133.66
2023-05-05T15:38:44.962Z,100126.25
2023-05-05T15:41:11.542Z,100125.06
2023-05-05T15:43:38.104Z,100133.84
2023-05-05T15:46:04.673Z,100134.66
2023-05-05T15:48:31.303Z,100135.78
2023-05-05T15:50:57.885Z,100137.84
2023-05-05T15:53:26.143Z,100136.94
2023-05-05T15:55:52.980Z,100132.31
2023-05-05T15:58:19.699Z,100122.13
2023-05-05T16:00:46.361Z,100122.94
2023-05-05T16:03:12.982Z,100124.66
2023-05-05T16:05:39.584Z,100122.59
2023-05-05T16:08:09.702Z,100126.97
2023-05-05T16:10:39.273Z,100123.94
2023-05-05T16:13:05.912Z,100122.00
2023-05-05T16:15:32.503Z,100118.84
2023-05-05T16:17:59.088Z,100120.97
2023-05-05T16:20:25.833Z,100120.25
2023-05-05T16:22:52.377Z,100117.38
2023-05-05T16:25:19.845Z,100120.00
2023-05-05T16:27:46.493Z,100111.75
2023-05-05T16:30:15.371Z,100112.97
2023-05-05T16:32:43.328Z,100113.34
2023-05-05T16:35:11.822Z,100106.81
2023-05-05T16:37:38.540Z,100105.25
2023-05-05T16:40:06.611Z,100110.63
2023-05-05T16:42:33.143Z,100108.50
2023-05-05T16:44:59.708Z,100107.06
2023-05-05T16:47:27.247Z,100099.44
2023-05-05T16:49:53.896Z,100098.69
2023-05-05T16:52:20.498Z,100115.19
2023-05-05T16:54:48.054Z,100107.31
2023-05-05T16:57:14.632Z,100108.78
2023-05-05T16:59:43.783Z,100107.53
2023-05-05T17:02:10.376Z,100105.88
2023-05-05T17:04:38.885Z,100107.63
2023-05-05T17:07:05.822Z,100103.94
2023-05-05T17:09:32.392Z,100099.31
2023-05-05T17:11:58.921Z,100106.72
2023-05-05T17:14:27.269Z,100106.53
2023-05-05T17:16:54.537Z,100106.22
2023-05-05T17:19:21.175Z,100100.56
2023-05-05T17:21:47.745Z,100107.22
2023-05-05T17:24:14.278Z,100099.00
2023-05-05T17:26:41.470Z,100093.47
2023-05-05T17:29:08.726Z,100103.63
2023-05-05T17:31:36.200Z,100096.59
2023-05-05T17:34:02.821Z,100098.00
2023-05-05T17:36:29.494Z,100100.75
2023-05-05T17:38:59.126Z,100094.84
2023-05-05T17:41:26.028Z,100090.16
2023-05-05T17:43:52.917Z,100091.56
2023-05-05T17:46:19.646Z,100093.91
2023-05-05T17:48:46.378Z,100091.91
2023-05-05T17:51:13.055Z,100092.75
2023-05-05T17:53:39.656Z,100090.41
2023-05-05T17:56:08.689Z,100088.59
2023-05-05T17:58:35.725Z,100092.44
2023-05-05T18:01:02.630Z,100087.22
2023-05-05T18:03:29.643Z,100090.59
2023-05-05T18:05:56.306Z,100092.78
2023-05-05T18:08:25.864Z,100095.81
2023-05-05T18:10:53.777Z,100097.81
2023-05-05T18:13:21.460Z,100097.81
2023-05-05T18:15:48.069Z,100102.34
2023-05-05T18:18:14.765Z,100101.50
2023-05-05T18:20:44.065Z,100106.78
2023-05-05T18:23:11.190Z,100107.91
2023-05-05T18:25:37.960Z,100109.44
2023-05-05T18:28:05.022Z,100111.66
2023-05-05T18:30:32.580Z,100111.59
2023-05-05T18:32:59.306Z,100116.03
2023-05-05T18:35:26.074Z,100117.03
2023-05-05T18:37:54.434Z,100119.03
2023-05-05T18:40:22.387Z,100117.66
2023-05-05T18:42:49.317Z,100118.91
2023-05-05T18:45:16.105Z,100125.44
2023-05-05T18:47:48.677Z,100119.41
2023-05-05T18:50:15.344Z,100118.94
2023-05-05T18:52:42.575Z,100121.44
2023-05-05T18:55:09.430Z,100128.91
2023-05-05T18:57:36.144Z,100121.75
2023-05-05T19:00:03.160Z,100116.94
2023-05-05T19:02:29.834Z,100126.16
2023-05-05T19:04:56.530Z,100134.13
2023-05-05T19:10:10.699Z,100138.34
2023-05-05T19:12:37.290Z,100144.13
2023-05-05T19:15:04.107Z,100143.91
2023-05-05T19:17:31.531Z,100137.84
2023-05-05T19:20:01.219Z,100133.78
2023-05-05T19:22:27.839Z,100141.28
2023-05-05T19:24:54.384Z,100138.91
2023-05-05T19:27:21.633Z,100134.78
2023-05-05T19:29:52.650Z,100139.53
2023-05-05T19:32:21.035Z,100145.41
2023-05-05T19:34:48.053Z,100137.47
2023-05-05T19:37:17.554Z,100145.56
2023-05-05T19:39:45.706Z,100147.91
2023-05-05T19:42:12.648Z,100152.16
2023-05-05T19:44:42.562Z,100149.88
2023-05-05T19:47:10.892Z,100148.13
2023-05-05T19:49:38.090Z,100149.78
2023-05-05T19:52:04.927Z,100147.66
2023-05-05T19:54:31.614Z,100144.19
2023-05-05T19:56:58.388Z,100142.28
2023-05-05T19:59:24.961Z,100138.56
2023-05-05T20:01:51.669Z,100132.03
2023-05-05T20:04:18.564Z,100130.91
2023-05-05T20:06:45.238Z,100134.97
2023-05-05T20:09:11.932Z,100134.38
2023-05-05T20:11:38.483Z,100130.81
2023-05-05T20:14:06.198Z,100126.28
2023-05-05T20:16:33.595Z,100128.69
2023-05-05T20:19:00.305Z,100126.97
2023-05-05T20:21:27.382Z,100125.81
2023-05-05T20:23:56.553Z,100120.81
2023-05-05T20:26:24.387Z,100125.56
2023-05-05T20:28:51.152Z,100121.22
2023-05-05T20:31:17.895Z,100114.47
2023-05-05T20:33:44.639Z,100112.63
2023-05-05T20:36:11.464Z,100119.56
2023-05-05T20:38:38.023Z,100116.47
2023-05-05T20:41:04.636Z,100114.03
2023-05-05T20:43:31.315Z,100113.19
2023-05-05T20:45:57.866Z,100118.69
2023-05-05T20:48:24.411Z,100115.09
2023-05-05T20:50:51.299Z,100109.16
2023-05-05T20:53:19.177Z,100117.06
2023-05-05T20:55:45.954Z,100112.69
2023-05-05T20:58:12.906Z,100116.50
2023-05-05T21:00:39.678Z,100110.50
2023-05-05T21:03:06.375Z,100114.56
2023-05-05T21:05:33.010Z,100109.81
2023-05-05T21:08:01.132Z,100111.38
2023-05-05T21:10:29.080Z,100124.03
2023-05-05T21:12:55.887Z,100106.84
2023-05-05T21:15:31.241Z,100106.59
2023-05-05T21:18:01.703Z,100102.34
2023-05-05T21:20:28.690Z,100105.16
2023-05-05T21:23:04.020Z,100093.78
2023-05-05T21:25:31.499Z,100090.78
2023-05-05T21:28:04.223Z,100090.66
2023-05-05T21:30:31.499Z,100086.00
2023-05-05T21:32:58.198Z,100074.47
2023-05-05T21:35:24.746Z,100079.97
2023-05-05T21:37:51.448Z,100079.69
2023-05-05T21:40:17.996Z,100081.53
2023-05-05T21:42:44.685Z,100078.56
2023-05-05T21:45:14.174Z,100077.31
2023-05-05T21:47:40.808Z,100081.81
2023-05-05T21:50:08.366Z,100080.00
2023-05-05T21:52:38.286Z,100076.19
2023-05-05T21:55:05.698Z,100076.19
2023-05-05T21:57:32.329Z,100076.03
2023-05-05T21:59:58.967Z,100077.50
2023-05-05T22:02:28.889Z,100081.38
2023-05-05T22:04:55.607Z,100076.94
2023-05-05T22:07:22.393Z,100072.88
2023-05-05T22:09:49.021Z,100068.88
2023-05-05T22:12:16.390Z,100079.88
2023-05-05T22:14:42.967Z,100083.41
2023-05-05T22:17:10.051Z,100085.53
2023-05-05T22:19:36.651Z,100078.06
2023-05-05T22:22:04.418Z,100075.28
2023-05-05T22:24:32.149Z,100079.19
2023-05-05T22:27:00.212Z,100081.41
2023-05-05T22:29:27.583Z,100081.31
2023-05-05T22:31:54.192Z,100080.19
2023-05-05T22:34:22.222Z,100089.59
2023-05-05T22:36:49.108Z,100093.84
2023-05-05T22:39:15.929Z,100104.47
2023-05-05T22:41:42.601Z,100124.13
2023-05-05T22:44:09.283Z,100134.75
2023-05-05T22:46:36.029Z,100142.22
2023-05-05T22:49:02.674Z,100147.53
2023-05-05T22:51:29.452Z,100152.97
2023-05-05T22:53:56.019Z,100153.28
2023-05-05T22:56:22.598Z,100153.91
2023-05-05T22:58:49.138Z,100163.69
2023-05-05T23:01:15.708Z,100173.34
2023-05-05T23:03:42.280Z,100170.38
2023-05-05T23:06:09.847Z,100165.56
2023-05-05T23:08:36.361Z,100170.63
2023-05-05T23:11:02.907Z,100170.34
2023-05-05T23:13:29.561Z,100165.22
2023-05-05T23:15:56.079Z,100167.34
2023-05-05T23:18:22.648Z,100159.91
2023-05-05T23:20:49.212Z,100167.19
2023-05-05T23:23:15.795Z,100156.22
2023-05-05T23:25:42.344Z,100161.66
2023-05-05T23:28:08.928Z,100159.38
2023-05-05T23:30:35.834Z,100165.09
2023-05-05T23:33:03.686Z,100167.47
2023-05-05T23:35:30.432Z,100175.72
2023-05-05T23:37:56.963Z,100160.91
2023-05-05T23:40:23.593Z,100161.75
2023-05-05T23:42:50.256Z,100160.75
2023-05-05T23:45:19.154Z,100164.28
2023-05-05T23:47:46.028Z,100159.50
2023-05-05T23:50:12.606Z,100162.84
2023-05-05T23:52:39.163Z,100163.13
2023-05-05T23:55:06.767Z,100157.81
2023-05-05T23:57:35.590Z,100159.13
